To NAV CANADA Home Page Login to a new session Search on AWWS site Disclaimer Vers la page française équivalente Tips FAQ What's new on the site To the Forecasts and Observations / NOTAM section To "File a Flight Plan" website Publications and other links Update of the User's profile FIC Telephone Numbers My Weather Data Folder Route Weather Data Regional Weather Data Local Weather Data To the Forecasts and Observations / NOTAM section
Request Generated 04/24/2019 at 16:45:43 UTC . Weather information available at that time is displayed.

METAR/TAF

LUTSELKE/LUTSELK'E/NT    (show WxCam)

SPECI CYLK 241620Z 06014G20KT 1SM -SN DRSN OVC020 M05/M07 A2975 RMK SN7SC1 SLP090=
METAR CYLK 241600Z 06013G18KT 3/4SM -SN DRSN OVC011 VV012 M05/M07 A2974 RMK SC8 SLP088=
METAR CYLK 241500Z 06013G19KT 1/2SM -SN DRSN OVC010 VV011 M06/M08 A2973 RMK SC8 SLP082=
METAR CYLK 241400Z 06014KT 1/2SM -SN DRSN OVC011 VV012 M06/M08 A2971 RMK SC8 S06 AFT 00Z/6/SNW CVR/MUCH LOOSE SLP076=

TAF CYLK 241538Z 2416/2424 06012KT 4SM -SN OVC012 TEMPO 2416/2424 1SM
-SN OVC008
RMK NXT FCST BY 241900Z=
Your time UTC time
Weather data provided by Environment Canada and NAV CANADA